Aérodrome :
LOGIN :

S'inscrire | Disclaimer

   EN    FR    IT 

 










Légende :    VFR   VFR Marginal   IFR   IFR Intensif   IFR Très Intensif
Visi : 
Plafond : 
>= 8 km
>= 3000ft
5 à 8 km
1000 à 3000 ft
1500m à 5 km
500 à 1000 ft
800 à 1500m
200 à 500 ft
< 800m
< 200 ft
Symboles :   Orages  Brouillard  Fortes neiges  Fortes précipitations  Vent > 20 kt
SIGMETs :   Divers  Orages  Givrage  Turbulence  Onde Orograph.  Cendres Volcan.







- Altitude de l'aérodrome : 333 ft


LIPL - Ghedi Brescia (Mil)

DERNIER METAR :
  • 190355Z /////KT 4500 BR NSC 01/01 Q1014 RMK FEW FEW150 VIS MIN 4500 WIND THR31 33003KT GRN

METARs EXPIRÉS :
  • 190255Z /////KT 4500 BR NSC 02/02 Q1014 RMK SKC VIS MIN 4500 WIND THR31 00000KT GRN
  • 190155Z /////KT 4500 BR NSC 01/01 Q1015 RMK FEW FEW150 VIS MIN 4500 WIND THR31 00000KT GRN

TAF TAF LIPL
Valide du 19 à 03h jusqu'au 19 à 12h UTC


190200Z 1903/1912 06006KT 6000 NSC
TEMPO 1903/1908 3000 BR
PROB40
TEMPO 1903/1906 1200 BR
Pas de NOTAMs connus pour ce terrain.



MET'MAP, la Météo Aéronautique d'un coup d'oeil ! - Copyright ORBIFLY Décembre 2007 - Disclaimer

ORBIFLY MET'MAP TEAM :

Programmation & Développement : Alexandra Zaïnal
Conception & Développement : Baudouin d'Aumeries
Co-Programmation & Développement : Marc-Olivier Méhu
Soutien technique & logistique : Manuel Goepfert

Contact : metmap@orbifly.com




SOURCES & CREDITS :

   NOAA